Saint Louis, MO (63114)

3:47 PM CDT on August 27, 2014 (GMT -0500)
1 Mile South of St. Louis Lambert Airport | Change Station
CLOSE
Current Station
Personal Weather Station
Location: Woodson Terrace, MO
Elevation: 591 ft
Nearby Weather Stations

Elev 591 ft 38.72 °N, 90.36 °W | Updated 0 second ago

Mostly Cloudy
Mostly Cloudy
92.6 °F
Feels Like 108 °F
N
1.0
Wind Variable Wind from NNE
Gusts 2.0 mph

Today
High -- | Low -- °F
--% Chance of Precip.
Yesterday
High -- | Low -- °F
Precip. -- in
6:26 AM 7:39 PM
Waxing Crescent, 5% visible
Pressure 30.07 in
Visibility 10.0 miles
Clouds Few 4500 ft
Scattered Clouds 15000 ft
Mostly Cloudy 25000 ft
Heat Index 108 °F
Dew Point 78 °F
Humidity 63%
Rainfall 0.00 in
Snow Depth Not available.
UV 4 out of 12
Pollen 10.20 out of 12
Ozone Unhealthy for Sensitive Groups
PM2.5 Moderate
Flu Activity Not available.
METAR KSTL 271951Z 36007KT 10SM FEW045 SCT150 BKN250 34/23 A3007 RMK AO2 SLPNO TCU DSNT N AND DSNT SE T03440233

More Conditions Fewer Conditions

Pressure 30.07 in
Visibility 10.0 miles
Clouds Few 4500 ft
Scattered Clouds 15000 ft
Mostly Cloudy 25000 ft
Heat Index 108 °F
Dew Point 78 °F
Humidity 63%
Rainfall 0.00 in
Snow Depth Not available.
UV 4 out of 12
Pollen 10.20 out of 12
Ozone Unhealthy for Sensitive Groups
PM2.5 Moderate
Flu Activity Not available.
METAR KSTL 271951Z 36007KT 10SM FEW045 SCT150 BKN250 34/23 A3007 RMK AO2 SLPNO TCU DSNT N AND DSNT SE T03440233

More Conditions Fewer Conditions

10-Day Weather Forecast

Almanac

Astronomy

Aug. 27, 2014 Rise Set
Actual Time 6:26 AM CDT 7:39 PM CDT
Civil Twilight 5:58 AM CDT 8:06 PM CDT
Nautical Twilight 5:25 AM CDT 8:39 PM CDT
Astronomical Twilight 4:51 AM CDT 9:13 PM CDT
Moon 8:20 AM CDT 8:33 PM CDT
Length of Visible Light 14h 07m
Length of Day
13h 12m
Tomorrow will be 2m 21s shorter.
Waxing Crescent, 5% of the Moon is Illuminated
Today
Waxing Crescent
Sep 2
First Quarter
Sep 8
Full
Sep 15
Last Quarter
Sep 24
New

Today's Extremes

State Highs State Lows

Community

WunderPhotos

Upload Photos

1,747,781 photos uploaded!

Nearby

Air Quality

  Air Quality AQ Index Pollutant
Yesterday Moderate
PM2.5
Yesterday Moderate
OZONE
Current Unhealthy for Sensitive Groups
OZONE
Current Moderate
PM2.5
Wednesday Good
PM2.5
Thursday Good
PM2.5

Snow Depth

Station Depth Elevation
No new snow has been reported.

Earthquake Activity

City Distance Mag. Time & Date
No recent earthquake activity has been reported nearby.
Minimum magnitude displayed is 2.5.

Coastal Water Temperatures

Place Temperature
No Stations Reporting

Nearby Weather Stations